PWSweather.com
Personal Weather Stations
Station Observations
KILMORRI1
Goose Lake, Morris, IL 60450

Goose LakeMorris, IL 60450

Lat: 41.34, Lon: -88.3

Elevation: 523

Station Type:

www.gooselakeweather.com

High Low Average
Temperature 56.0°F13.3°C 36.7°F2.6°C 47.6°F8.7°C
Dew Point 51.6°F10.9°C 31.8°F-0.1°C 44.7°F7.1°C
Winds 13.8 mph 22.2 kmh Calm Calm 5.0 mph S8.0 kmh S
Wind Gusts 19.6 mph31.5 kmh -- 8.0 mph12.9 kmh
Humidity 96% 81% 90%
Pressure 29.79 in1008.8 mb 29.40 in995.6 mb -
Precipitation 0.54 in13.7 mm - -
Hour Temp Dew Point Humidity Winds Wind Gusts Pressure Precip Precip Rate Daily Precip Total
12:00 AM 48.5°F9.2°C 47.1°F8.4°C 95% 1.2 mph SE1.9 kmh SE 5.8 mph9.3 kmh 29.79 in1008.8 mb - 0.00 in0.0 mm 0.00 in0.0 mm
12:10 AM 48.4°F9.1°C 47.0°F8.3°C 95% 2.3 mph S3.7 kmh S 3.5 mph5.6 kmh 29.79 in1008.8 mb - 0.00 in0.0 mm 0.00 in0.0 mm
12:20 AM 48.2°F9.0°C 46.8°F8.2°C 95% 1.2 mph SSE1.9 kmh SSE 3.5 mph5.6 kmh 29.79 in1008.8 mb - 0.00 in0.0 mm 0.00 in0.0 mm
12:30 AM 48.0°F8.9°C 46.7°F8.2°C 95% 1.2 mph SSE1.9 kmh SSE 3.5 mph5.6 kmh 29.78 in1008.5 mb - 0.00 in0.0 mm 0.00 in0.0 mm
12:40 AM 48.1°F8.9°C 46.8°F8.2°C 95% 2.3 mph S3.7 kmh S 3.5 mph5.6 kmh 29.78 in1008.5 mb - 0.00 in0.0 mm 0.00 in0.0 mm
12:50 AM 48.0°F8.9°C 46.6°F8.1°C 95% 1.2 mph SE1.9 kmh SE 3.5 mph5.6 kmh 29.77 in1008.1 mb - 0.00 in0.0 mm 0.00 in0.0 mm
01:00 AM 48.1°F8.9°C 46.7°F8.2°C 95% 3.5 mph SE5.6 kmh SE 3.5 mph5.6 kmh 29.77 in1008.1 mb - 0.00 in0.0 mm 0.00 in0.0 mm
01:10 AM 47.7°F8.7°C 46.4°F8.0°C 95% 1.2 mph SSE1.9 kmh SSE 4.6 mph7.4 kmh 29.76 in1007.8 mb - 0.00 in0.0 mm 0.00 in0.0 mm
01:20 AM 47.3°F8.5°C 45.9°F7.7°C 95% 1.2 mph ESE1.9 kmh ESE 2.3 mph3.7 kmh 29.76 in1007.8 mb - 0.00 in0.0 mm 0.00 in0.0 mm
01:30 AM 47.3°F8.5°C 45.9°F7.7°C 95% 2.3 mph ESE3.7 kmh ESE 3.5 mph5.6 kmh 29.75 in1007.5 mb - 0.00 in0.0 mm 0.00 in0.0 mm
01:40 AM 47.5°F8.6°C 46.1°F7.8°C 95% 2.3 mph ESE3.7 kmh ESE 3.5 mph5.6 kmh 29.75 in1007.5 mb - 0.00 in0.0 mm 0.00 in0.0 mm
01:50 AM 47.5°F8.6°C 46.4°F8.0°C 96% 2.3 mph SE3.7 kmh SE 3.5 mph5.6 kmh 29.74 in1007.1 mb - 0.00 in0.0 mm 0.00 in0.0 mm
02:00 AM 47.8°F8.8°C 46.7°F8.2°C 96% 2.3 mph ESE3.7 kmh ESE 3.5 mph5.6 kmh 29.74 in1007.1 mb - 0.00 in0.0 mm 0.00 in0.0 mm
02:10 AM 47.5°F8.6°C 46.4°F8.0°C 96% 2.3 mph SE3.7 kmh SE 3.5 mph5.6 kmh 29.72 in1006.4 mb - 0.00 in0.0 mm 0.00 in0.0 mm
02:20 AM 47.7°F8.7°C 46.6°F8.1°C 96% 2.3 mph ESE3.7 kmh ESE 3.5 mph5.6 kmh 29.72 in1006.4 mb - 0.00 in0.0 mm 0.00 in0.0 mm
02:30 AM 48.0°F8.9°C 46.7°F8.2°C 95% 3.5 mph SE5.6 kmh SE 5.8 mph9.3 kmh 29.71 in1006.1 mb - 0.00 in0.0 mm 0.00 in0.0 mm
02:40 AM 48.2°F9.0°C 47.2°F8.4°C 96% 2.3 mph ESE3.7 kmh ESE 3.5 mph5.6 kmh 29.71 in1006.1 mb - 0.00 in0.0 mm 0.00 in0.0 mm
02:50 AM 48.1°F8.9°C 47.0°F8.3°C 96% 3.5 mph ESE5.6 kmh ESE 3.5 mph5.6 kmh 29.70 in1005.8 mb - 0.00 in0.0 mm 0.00 in0.0 mm
03:00 AM 48.1°F8.9°C 46.7°F8.2°C 95% 3.5 mph SE5.6 kmh SE 4.6 mph7.4 kmh 29.69 in1005.4 mb - 0.00 in0.0 mm 0.00 in0.0 mm
03:10 AM 48.1°F8.9°C 46.7°F8.2°C 95% 1.2 mph SE1.9 kmh SE 3.5 mph5.6 kmh 29.69 in1005.4 mb - 0.00 in0.0 mm 0.00 in0.0 mm
03:20 AM 48.2°F9.0°C 47.1°F8.4°C 96% 2.3 mph SE3.7 kmh SE 4.6 mph7.4 kmh 29.68 in1005.1 mb - 0.01 in0.3 mm 0.01 in0.3 mm
03:30 AM 48.5°F9.2°C 47.4°F8.6°C 96% 3.5 mph ESE5.6 kmh ESE 3.5 mph5.6 kmh 29.67 in1004.7 mb - 0.02 in0.5 mm 0.03 in0.8 mm
03:40 AM 48.5°F9.2°C 47.1°F8.4°C 95% 3.5 mph ESE5.6 kmh ESE 3.5 mph5.6 kmh 29.67 in1004.7 mb - 0.03 in0.8 mm 0.05 in1.3 mm
03:50 AM 48.4°F9.1°C 47.0°F8.3°C 95% 2.3 mph ESE3.7 kmh ESE 6.9 mph11.1 kmh 29.67 in1004.7 mb - 0.01 in0.3 mm 0.06 in1.5 mm
04:00 AM 48.5°F9.2°C 47.4°F8.6°C 96% 1.2 mph SE1.9 kmh SE 3.5 mph5.6 kmh 29.65 in1004.1 mb - 0.02 in0.5 mm 0.08 in2.0 mm
04:10 AM 48.6°F9.2°C 47.2°F8.4°C 95% 2.3 mph SE3.7 kmh SE 3.5 mph5.6 kmh 29.65 in1004.1 mb - 0.07 in1.8 mm 0.14 in3.6 mm
04:20 AM 48.7°F9.3°C 47.3°F8.5°C 95% Calm Calm -- 29.65 in1004.1 mb - 0.03 in0.8 mm 0.16 in4.1 mm
04:30 AM 48.5°F9.2°C 47.1°F8.4°C 95% Calm Calm -- 29.64 in1003.7 mb - 0.00 in0.0 mm 0.16 in4.1 mm
04:40 AM 48.3°F9.1°C 47.2°F8.4°C 96% Calm Calm 2.3 mph3.7 kmh 29.64 in1003.7 mb - 0.00 in0.0 mm 0.16 in4.1 mm
04:50 AM 47.9°F8.8°C 46.5°F8.1°C 95% 1.2 mph N1.9 kmh N 2.3 mph3.7 kmh 29.64 in1003.7 mb - 0.00 in0.0 mm 0.16 in4.1 mm
05:00 AM 47.8°F8.8°C 46.5°F8.1°C 95% 1.2 mph NE1.9 kmh NE 3.5 mph5.6 kmh 29.63 in1003.4 mb - 0.02 in0.5 mm 0.18 in4.6 mm
05:10 AM 47.0°F8.3°C 45.6°F7.6°C 95% 2.3 mph E3.7 kmh E 3.5 mph5.6 kmh 29.62 in1003.0 mb - 0.01 in0.3 mm 0.19 in4.8 mm
05:20 AM 47.2°F8.4°C 45.8°F7.7°C 95% 1.2 mph SSE1.9 kmh SSE 3.5 mph5.6 kmh 29.64 in1003.7 mb - 0.03 in0.8 mm 0.22 in5.6 mm
05:30 AM 46.9°F8.3°C 45.8°F7.7°C 96% 2.3 mph E3.7 kmh E 3.5 mph5.6 kmh 29.64 in1003.7 mb - 0.08 in2.0 mm 0.30 in7.6 mm
05:40 AM 47.5°F8.6°C 46.5°F8.1°C 96% 2.3 mph ESE3.7 kmh ESE 3.5 mph5.6 kmh 29.63 in1003.4 mb - 0.06 in1.5 mm 0.34 in8.6 mm
05:50 AM 47.8°F8.8°C 46.7°F8.2°C 96% 3.5 mph ESE5.6 kmh ESE 4.6 mph7.4 kmh 29.62 in1003.0 mb - 0.02 in0.5 mm 0.36 in9.1 mm
06:00 AM 47.9°F8.8°C 46.8°F8.2°C 96% 2.3 mph E3.7 kmh E 4.6 mph7.4 kmh 29.61 in1002.7 mb - 0.03 in0.8 mm 0.39 in9.9 mm
06:10 AM 47.9°F8.8°C 46.8°F8.2°C 96% 4.6 mph ESE7.4 kmh ESE 9.2 mph14.8 kmh 29.60 in1002.4 mb - 0.04 in1.0 mm 0.43 in10.9 mm
06:20 AM 47.9°F8.8°C 46.8°F8.2°C 96% 4.6 mph SE7.4 kmh SE 10.4 mph16.7 kmh 29.59 in1002.0 mb - 0.03 in0.8 mm 0.45 in11.4 mm
06:30 AM 48.4°F9.1°C 47.3°F8.5°C 96% 6.9 mph SE11.1 kmh SE 11.5 mph18.5 kmh 29.58 in1001.7 mb - 0.01 in0.3 mm 0.46 in11.7 mm
06:40 AM 48.8°F9.3°C 47.7°F8.7°C 96% 6.9 mph SSE11.1 kmh SSE 11.5 mph18.5 kmh 29.57 in1001.4 mb - 0.01 in0.3 mm 0.47 in11.9 mm
06:50 AM 48.8°F9.3°C 47.7°F8.7°C 96% 6.9 mph SE11.1 kmh SE 10.4 mph16.7 kmh 29.53 in1000.0 mb - 0.00 in0.0 mm 0.47 in11.9 mm
07:00 AM 49.0°F9.4°C 47.9°F8.8°C 96% 4.6 mph SSE7.4 kmh SSE 8.1 mph13.0 kmh 29.54 in1000.3 mb - 0.00 in0.0 mm 0.47 in11.9 mm
07:10 AM 49.3°F9.6°C 47.9°F8.8°C 95% 6.9 mph SSE11.1 kmh SSE 10.4 mph16.7 kmh 29.54 in1000.3 mb - 0.00 in0.0 mm 0.47 in11.9 mm
07:20 AM 49.2°F9.6°C 47.8°F8.8°C 95% 6.9 mph SSE11.1 kmh SSE 11.5 mph18.5 kmh 29.54 in1000.3 mb - 0.00 in0.0 mm 0.47 in11.9 mm
07:30 AM 49.0°F9.4°C 47.6°F8.7°C 95% 5.8 mph S9.3 kmh S 10.4 mph16.7 kmh 29.55 in1000.7 mb - 0.00 in0.0 mm 0.47 in11.9 mm
07:40 AM 49.0°F9.4°C 47.6°F8.7°C 95% 9.2 mph SSE14.8 kmh SSE 16.1 mph25.9 kmh 29.56 in1001.0 mb - 0.00 in0.0 mm 0.47 in11.9 mm
07:50 AM 49.0°F9.4°C 47.6°F8.7°C 95% 9.2 mph S14.8 kmh S 15.0 mph24.1 kmh 29.56 in1001.0 mb - 0.00 in0.0 mm 0.47 in11.9 mm
08:00 AM 49.1°F9.5°C 47.7°F8.7°C 95% 8.1 mph S13.0 kmh S 12.7 mph20.4 kmh 29.56 in1001.0 mb - 0.00 in0.0 mm 0.47 in11.9 mm
08:10 AM 49.2°F9.6°C 47.8°F8.8°C 95% 6.9 mph S11.1 kmh S 18.4 mph29.6 kmh 29.57 in1001.4 mb - 0.00 in0.0 mm 0.47 in11.9 mm
08:20 AM 49.3°F9.6°C 47.6°F8.7°C 94% 5.8 mph S9.3 kmh S 15.0 mph24.1 kmh 29.57 in1001.4 mb - 0.00 in0.0 mm 0.47 in11.9 mm
08:30 AM 49.2°F9.6°C 47.5°F8.6°C 94% 5.8 mph SSE9.3 kmh SSE 11.5 mph18.5 kmh 29.57 in1001.4 mb - 0.00 in0.0 mm 0.47 in11.9 mm
08:40 AM 49.4°F9.7°C 47.7°F8.7°C 94% 8.1 mph S13.0 kmh S 10.4 mph16.7 kmh 29.57 in1001.4 mb - 0.00 in0.0 mm 0.47 in11.9 mm
08:50 AM 49.6°F9.8°C 47.7°F8.7°C 93% 6.9 mph S11.1 kmh S 10.4 mph16.7 kmh 29.57 in1001.4 mb - 0.00 in0.0 mm 0.47 in11.9 mm
09:00 AM 49.7°F9.8°C 47.8°F8.8°C 93% 4.6 mph S7.4 kmh S 8.1 mph13.0 kmh 29.57 in1001.4 mb - 0.00 in0.0 mm 0.47 in11.9 mm
09:10 AM 50.1°F10.1°C 48.1°F8.9°C 93% 8.1 mph S13.0 kmh S 12.7 mph20.4 kmh 29.57 in1001.4 mb - 0.00 in0.0 mm 0.47 in11.9 mm
09:20 AM 50.4°F10.2°C 48.2°F9.0°C 92% 8.1 mph S13.0 kmh S 11.5 mph18.5 kmh 29.57 in1001.4 mb - 0.00 in0.0 mm 0.47 in11.9 mm
09:30 AM 50.6°F10.3°C 48.4°F9.1°C 92% 8.1 mph S13.0 kmh S 16.1 mph25.9 kmh 29.57 in1001.4 mb - 0.00 in0.0 mm 0.47 in11.9 mm
09:40 AM 50.6°F10.3°C 48.1°F8.9°C 91% 8.1 mph S13.0 kmh S 17.3 mph27.8 kmh 29.57 in1001.4 mb - 0.00 in0.0 mm 0.47 in11.9 mm
09:50 AM 50.7°F10.4°C 48.2°F9.0°C 91% 9.2 mph S14.8 kmh S 15.0 mph24.1 kmh 29.57 in1001.4 mb - 0.00 in0.0 mm 0.47 in11.9 mm
10:00 AM 50.7°F10.4°C 47.9°F8.8°C 90% 6.9 mph S11.1 kmh S 12.7 mph20.4 kmh 29.56 in1001.0 mb - 0.00 in0.0 mm 0.47 in11.9 mm
10:10 AM 50.8°F10.4°C 47.9°F8.8°C 90% 8.1 mph S13.0 kmh S 11.5 mph18.5 kmh 29.56 in1001.0 mb - 0.00 in0.0 mm 0.47 in11.9 mm
10:20 AM 51.0°F10.6°C 48.2°F9.0°C 90% 6.9 mph S11.1 kmh S 11.5 mph18.5 kmh 29.55 in1000.7 mb - 0.00 in0.0 mm 0.47 in11.9 mm
10:30 AM 51.2°F10.7°C 48.4°F9.1°C 90% 11.5 mph S18.5 kmh S 17.3 mph27.8 kmh 29.56 in1001.0 mb - 0.00 in0.0 mm 0.47 in11.9 mm
10:40 AM 51.2°F10.7°C 48.4°F9.1°C 90% 8.1 mph S13.0 kmh S 13.8 mph22.2 kmh 29.55 in1000.7 mb - 0.00 in0.0 mm 0.47 in11.9 mm
10:50 AM 51.2°F10.7°C 48.4°F9.1°C 90% 10.4 mph S16.7 kmh S 16.1 mph25.9 kmh 29.55 in1000.7 mb - 0.00 in0.0 mm 0.47 in11.9 mm
11:00 AM 51.2°F10.7°C 48.4°F9.1°C 90% 6.9 mph S11.1 kmh S 17.3 mph27.8 kmh 29.54 in1000.3 mb - 0.00 in0.0 mm 0.47 in11.9 mm
11:10 AM 51.4°F10.8°C 48.8°F9.3°C 91% 8.1 mph S13.0 kmh S 15.0 mph24.1 kmh 29.54 in1000.3 mb - 0.00 in0.0 mm 0.47 in11.9 mm
11:20 AM 51.4°F10.8°C 48.9°F9.4°C 91% 8.1 mph S13.0 kmh S 17.3 mph27.8 kmh 29.53 in1000.0 mb - 0.00 in0.0 mm 0.47 in11.9 mm
11:30 AM 51.2°F10.7°C 49.0°F9.4°C 92% 4.6 mph S7.4 kmh S 9.2 mph14.8 kmh 29.52 in999.7 mb - 0.00 in0.0 mm 0.47 in11.9 mm
11:40 AM 51.2°F10.7°C 49.2°F9.6°C 93% 4.6 mph S7.4 kmh S 9.2 mph14.8 kmh 29.52 in999.7 mb - 0.00 in0.0 mm 0.47 in11.9 mm
11:50 AM 51.2°F10.7°C 49.2°F9.6°C 93% 6.9 mph S11.1 kmh S 11.5 mph18.5 kmh 29.51 in999.3 mb - 0.00 in0.0 mm 0.47 in11.9 mm
12:00 PM 51.4°F10.8°C 49.4°F9.7°C 93% 5.8 mph S9.3 kmh S 10.4 mph16.7 kmh 29.50 in999.0 mb - 0.00 in0.0 mm 0.47 in11.9 mm
12:10 PM 51.5°F10.8°C 49.5°F9.7°C 93% 9.2 mph S14.8 kmh S 11.5 mph18.5 kmh 29.49 in998.6 mb - 0.00 in0.0 mm 0.47 in11.9 mm
12:20 PM 51.6°F10.9°C 49.6°F9.8°C 93% 8.1 mph S13.0 kmh S 11.5 mph18.5 kmh 29.48 in998.3 mb - 0.00 in0.0 mm 0.47 in11.9 mm
12:30 PM 51.7°F10.9°C 49.8°F9.9°C 93% 5.8 mph S9.3 kmh S 9.2 mph14.8 kmh 29.48 in998.3 mb - 0.00 in0.0 mm 0.47 in11.9 mm
12:40 PM 52.0°F11.1°C 50.0°F10.0°C 93% 8.1 mph S13.0 kmh S 13.8 mph22.2 kmh 29.47 in998.0 mb - 0.00 in0.0 mm 0.47 in11.9 mm
12:50 PM 52.1°F11.2°C 49.8°F9.9°C 92% 5.8 mph S9.3 kmh S 16.1 mph25.9 kmh 29.46 in997.6 mb - 0.00 in0.0 mm 0.47 in11.9 mm
01:00 PM 52.6°F11.4°C 50.3°F10.2°C 92% 6.9 mph S11.1 kmh S 11.5 mph18.5 kmh 29.46 in997.6 mb - 0.00 in0.0 mm 0.47 in11.9 mm
01:10 PM 53.1°F11.7°C 50.6°F10.3°C 91% 6.9 mph S11.1 kmh S 10.4 mph16.7 kmh 29.45 in997.3 mb - 0.00 in0.0 mm 0.47 in11.9 mm
01:20 PM 54.3°F12.4°C 51.1°F10.6°C 89% 9.2 mph S14.8 kmh S 12.7 mph20.4 kmh 29.44 in997.0 mb - 0.00 in0.0 mm 0.47 in11.9 mm
01:30 PM 55.4°F13.0°C 51.6°F10.9°C 87% 5.8 mph S9.3 kmh S 8.1 mph13.0 kmh 29.44 in997.0 mb - 0.00 in0.0 mm 0.47 in11.9 mm
01:40 PM 55.0°F12.8°C 50.9°F10.5°C 86% 5.8 mph S9.3 kmh S 9.2 mph14.8 kmh 29.43 in996.6 mb - 0.00 in0.0 mm 0.47 in11.9 mm
01:50 PM 55.2°F12.9°C 51.1°F10.6°C 86% 5.8 mph S9.3 kmh S 11.5 mph18.5 kmh 29.43 in996.6 mb - 0.00 in0.0 mm 0.47 in11.9 mm
02:00 PM 55.9°F13.3°C 51.1°F10.6°C 84% 6.9 mph SSE11.1 kmh SSE 13.8 mph22.2 kmh 29.43 in996.6 mb - 0.00 in0.0 mm 0.47 in11.9 mm
02:10 PM 55.9°F13.3°C 51.1°F10.6°C 84% 8.1 mph S13.0 kmh S 12.7 mph20.4 kmh 29.43 in996.6 mb - 0.00 in0.0 mm 0.47 in11.9 mm
02:20 PM 56.0°F13.3°C 50.9°F10.5°C 83% 6.9 mph SSW11.1 kmh SSW 11.5 mph18.5 kmh 29.42 in996.3 mb - 0.00 in0.0 mm 0.47 in11.9 mm
02:30 PM 55.6°F13.1°C 50.5°F10.3°C 83% 6.9 mph S11.1 kmh S 11.5 mph18.5 kmh 29.43 in996.6 mb - 0.00 in0.0 mm 0.47 in11.9 mm
02:40 PM 55.2°F12.9°C 50.4°F10.2°C 84% 8.1 mph S13.0 kmh S 17.3 mph27.8 kmh 29.43 in996.6 mb - 0.00 in0.0 mm 0.47 in11.9 mm
02:50 PM 55.2°F12.9°C 50.1°F10.1°C 83% 6.9 mph S11.1 kmh S 18.4 mph29.6 kmh 29.42 in996.3 mb - 0.00 in0.0 mm 0.47 in11.9 mm
03:00 PM 55.3°F12.9°C 50.2°F10.1°C 83% 5.8 mph S9.3 kmh S 10.4 mph16.7 kmh 29.42 in996.3 mb - 0.00 in0.0 mm 0.47 in11.9 mm
03:10 PM 55.3°F12.9°C 49.9°F9.9°C 82% 6.9 mph S11.1 kmh S 10.4 mph16.7 kmh 29.42 in996.3 mb - 0.00 in0.0 mm 0.47 in11.9 mm
03:20 PM 55.3°F12.9°C 49.9°F9.9°C 82% 4.6 mph S7.4 kmh S 9.2 mph14.8 kmh 29.42 in996.3 mb - 0.00 in0.0 mm 0.47 in11.9 mm
03:30 PM 55.1°F12.8°C 49.7°F9.8°C 82% 5.8 mph S9.3 kmh S 11.5 mph18.5 kmh 29.42 in996.3 mb - 0.00 in0.0 mm 0.47 in11.9 mm
03:40 PM 54.9°F12.7°C 49.8°F9.9°C 83% 4.6 mph SSE7.4 kmh SSE 10.4 mph16.7 kmh 29.42 in996.3 mb - 0.00 in0.0 mm 0.47 in11.9 mm
03:50 PM 54.3°F12.4°C 49.2°F9.6°C 83% 6.9 mph SSE11.1 kmh SSE 12.7 mph20.4 kmh 29.42 in996.3 mb - 0.00 in0.0 mm 0.47 in11.9 mm
04:00 PM 54.0°F12.2°C 49.0°F9.4°C 83% 4.6 mph S7.4 kmh S 11.5 mph18.5 kmh 29.42 in996.3 mb - 0.00 in0.0 mm 0.47 in11.9 mm
04:10 PM 53.4°F11.9°C 48.7°F9.3°C 84% 2.3 mph S3.7 kmh S 3.5 mph5.6 kmh 29.42 in996.3 mb - 0.00 in0.0 mm 0.47 in11.9 mm
04:20 PM 53.0°F11.7°C 48.3°F9.1°C 84% 4.6 mph SSE7.4 kmh SSE 6.9 mph11.1 kmh 29.42 in996.3 mb - 0.00 in0.0 mm 0.47 in11.9 mm
04:30 PM 52.4°F11.3°C 47.7°F8.7°C 84% 4.6 mph SSE7.4 kmh SSE 6.9 mph11.1 kmh 29.42 in996.3 mb - 0.00 in0.0 mm 0.47 in11.9 mm
04:40 PM 52.2°F11.2°C 47.5°F8.6°C 84% 3.5 mph SSE5.6 kmh SSE 4.6 mph7.4 kmh 29.42 in996.3 mb - 0.00 in0.0 mm 0.47 in11.9 mm
04:50 PM 51.8°F11.0°C 47.1°F8.4°C 84% 3.5 mph S5.6 kmh S 6.9 mph11.1 kmh 29.42 in996.3 mb - 0.00 in0.0 mm 0.47 in11.9 mm
05:00 PM 51.6°F10.9°C 47.2°F8.4°C 85% 2.3 mph SSE3.7 kmh SSE 6.9 mph11.1 kmh 29.42 in996.3 mb - 0.00 in0.0 mm 0.47 in11.9 mm
05:10 PM 51.3°F10.7°C 46.9°F8.3°C 85% 3.5 mph SSE5.6 kmh SSE 5.8 mph9.3 kmh 29.41 in995.9 mb - 0.00 in0.0 mm 0.47 in11.9 mm
05:20 PM 51.0°F10.6°C 47.0°F8.3°C 86% 4.6 mph SE7.4 kmh SE 5.8 mph9.3 kmh 29.41 in995.9 mb - 0.00 in0.0 mm 0.47 in11.9 mm
05:30 PM 50.4°F10.2°C 46.4°F8.0°C 86% 2.3 mph SE3.7 kmh SE 3.5 mph5.6 kmh 29.40 in995.6 mb - 0.00 in0.0 mm 0.47 in11.9 mm
05:40 PM 50.3°F10.2°C 46.6°F8.1°C 87% 8.1 mph WSW13.0 kmh WSW 12.7 mph20.4 kmh 29.43 in996.6 mb - 0.00 in0.0 mm 0.47 in11.9 mm
05:50 PM 48.2°F9.0°C 44.2°F6.8°C 86% 13.8 mph SW22.2 kmh SW 19.6 mph31.5 kmh 29.45 in997.3 mb - 0.06 in1.5 mm 0.53 in13.5 mm
06:00 PM 46.6°F8.1°C 42.9°F6.1°C 87% 8.1 mph W13.0 kmh W 9.2 mph14.8 kmh 29.45 in997.3 mb - 0.00 in0.0 mm 0.53 in13.5 mm
06:10 PM 45.5°F7.5°C 41.9°F5.5°C 87% 6.9 mph WSW11.1 kmh WSW 11.5 mph18.5 kmh 29.47 in998.0 mb - 0.00 in0.0 mm 0.53 in13.5 mm
06:20 PM 44.7°F7.1°C 40.5°F4.7°C 85% 10.4 mph WSW16.7 kmh WSW 12.7 mph20.4 kmh 29.48 in998.3 mb - 0.00 in0.0 mm 0.53 in13.5 mm
06:30 PM 43.9°F6.6°C 39.3°F4.1°C 84% 9.2 mph WSW14.8 kmh WSW 13.8 mph22.2 kmh 29.48 in998.3 mb - 0.00 in0.0 mm 0.53 in13.5 mm
06:40 PM 43.4°F6.3°C 38.9°F3.8°C 84% 9.2 mph W14.8 kmh W 11.5 mph18.5 kmh 29.49 in998.6 mb - 0.00 in0.0 mm 0.53 in13.5 mm
06:50 PM 43.4°F6.3°C 38.6°F3.7°C 83% 11.5 mph W18.5 kmh W 12.7 mph20.4 kmh 29.50 in999.0 mb - 0.00 in0.0 mm 0.53 in13.5 mm
07:00 PM 43.1°F6.2°C 37.6°F3.1°C 81% 8.1 mph W13.0 kmh W 12.7 mph20.4 kmh 29.51 in999.3 mb - 0.00 in0.0 mm 0.53 in13.5 mm
07:10 PM 42.4°F5.8°C 37.0°F2.8°C 81% 9.2 mph W14.8 kmh W 13.8 mph22.2 kmh 29.52 in999.7 mb - 0.00 in0.0 mm 0.53 in13.5 mm
07:20 PM 41.6°F5.3°C 36.8°F2.7°C 83% 6.9 mph W11.1 kmh W 11.5 mph18.5 kmh 29.52 in999.7 mb - 0.00 in0.0 mm 0.53 in13.5 mm
07:30 PM 40.7°F4.8°C 35.9°F2.2°C 83% 5.8 mph W9.3 kmh W 6.9 mph11.1 kmh 29.52 in999.7 mb - 0.01 in0.3 mm 0.54 in13.7 mm
07:40 PM 40.2°F4.6°C 35.8°F2.1°C 84% 4.6 mph WSW7.4 kmh WSW 4.6 mph7.4 kmh 29.51 in999.3 mb - 0.00 in0.0 mm 0.54 in13.7 mm
07:50 PM 40.0°F4.4°C 35.5°F1.9°C 84% 3.5 mph W5.6 kmh W 3.5 mph5.6 kmh 29.51 in999.3 mb - 0.00 in0.0 mm 0.54 in13.7 mm
08:00 PM 39.5°F4.2°C 35.4°F1.9°C 85% 1.2 mph WSW1.9 kmh WSW 3.5 mph5.6 kmh 29.51 in999.3 mb - 0.00 in0.0 mm 0.54 in13.7 mm
08:10 PM 39.4°F4.1°C 35.3°F1.8°C 85% 3.5 mph SW5.6 kmh SW 3.5 mph5.6 kmh 29.52 in999.7 mb - 0.00 in0.0 mm 0.54 in13.7 mm
08:20 PM 39.2°F4.0°C 35.3°F1.8°C 86% 1.2 mph SW1.9 kmh SW 2.3 mph3.7 kmh 29.52 in999.7 mb - 0.00 in0.0 mm 0.54 in13.7 mm
08:30 PM 38.9°F3.8°C 35.1°F1.7°C 86% 1.2 mph SW1.9 kmh SW 2.3 mph3.7 kmh 29.52 in999.7 mb - 0.00 in0.0 mm 0.54 in13.7 mm
08:40 PM 38.6°F3.7°C 35.1°F1.7°C 87% 2.3 mph SSW3.7 kmh SSW 3.5 mph5.6 kmh 29.52 in999.7 mb - 0.00 in0.0 mm 0.54 in13.7 mm
08:50 PM 38.8°F3.8°C 35.3°F1.8°C 87% 1.2 mph S1.9 kmh S 2.3 mph3.7 kmh 29.52 in999.7 mb - 0.00 in0.0 mm 0.54 in13.7 mm
09:00 PM 38.4°F3.6°C 34.9°F1.6°C 87% 2.3 mph S3.7 kmh S 3.5 mph5.6 kmh 29.52 in999.7 mb - 0.00 in0.0 mm 0.54 in13.7 mm
09:10 PM 37.4°F3.0°C 33.9°F1.1°C 87% 2.3 mph SW3.7 kmh SW 3.5 mph5.6 kmh 29.52 in999.7 mb - 0.00 in0.0 mm 0.54 in13.7 mm
09:20 PM 36.7°F2.6°C 33.2°F0.7°C 87% 2.3 mph SSW3.7 kmh SSW 3.5 mph5.6 kmh 29.52 in999.7 mb - 0.00 in0.0 mm 0.54 in13.7 mm
09:30 PM 36.8°F2.7°C 33.3°F0.7°C 87% 3.5 mph SW5.6 kmh SW 4.6 mph7.4 kmh 29.52 in999.7 mb - 0.00 in0.0 mm 0.54 in13.7 mm
09:40 PM 36.7°F2.6°C 32.6°F0.3°C 85% 2.3 mph SW3.7 kmh SW 3.5 mph5.6 kmh 29.52 in999.7 mb - 0.00 in0.0 mm 0.54 in13.7 mm
09:50 PM 36.7°F2.6°C 32.0°F0.0°C 83% 2.3 mph SSW3.7 kmh SSW 5.8 mph9.3 kmh 29.52 in999.7 mb - 0.00 in0.0 mm 0.54 in13.7 mm
10:00 PM 36.8°F2.7°C 31.8°F-0.1°C 82% 3.5 mph S5.6 kmh S 3.5 mph5.6 kmh 29.53 in1000.0 mb - 0.00 in0.0 mm 0.54 in13.7 mm
10:10 PM 37.0°F2.8°C 32.0°F0.0°C 82% 3.5 mph SSW5.6 kmh SSW 4.6 mph7.4 kmh 29.53 in1000.0 mb - 0.00 in0.0 mm 0.54 in13.7 mm
10:20 PM 37.3°F2.9°C 32.3°F0.2°C 82% 3.5 mph SW5.6 kmh SW 4.6 mph7.4 kmh 29.53 in1000.0 mb - 0.00 in0.0 mm 0.54 in13.7 mm
10:30 PM 37.3°F2.9°C 32.3°F0.2°C 82% 3.5 mph SSW5.6 kmh SSW 5.8 mph9.3 kmh 29.53 in1000.0 mb - 0.00 in0.0 mm 0.54 in13.7 mm
10:40 PM 37.2°F2.9°C 32.2°F0.1°C 82% 3.5 mph SSW5.6 kmh SSW 5.8 mph9.3 kmh 29.53 in1000.0 mb - 0.00 in0.0 mm 0.54 in13.7 mm
10:50 PM 37.2°F2.9°C 32.6°F0.3°C 83% 2.3 mph SSW3.7 kmh SSW 2.3 mph3.7 kmh 29.53 in1000.0 mb - 0.00 in0.0 mm 0.54 in13.7 mm
11:00 PM 37.2°F2.9°C 32.5°F0.3°C 83% 2.3 mph SSW3.7 kmh SSW 3.5 mph5.6 kmh 29.52 in999.7 mb - 0.00 in0.0 mm 0.54 in13.7 mm
11:10 PM 37.4°F3.0°C 32.7°F0.4°C 83% 3.5 mph SSW5.6 kmh SSW 3.5 mph5.6 kmh 29.52 in999.7 mb - 0.00 in0.0 mm 0.54 in13.7 mm
11:20 PM 37.3°F2.9°C 32.9°F0.5°C 84% 3.5 mph SSW5.6 kmh SSW 5.8 mph9.3 kmh 29.52 in999.7 mb - 0.00 in0.0 mm 0.54 in13.7 mm
11:30 PM 37.2°F2.9°C 32.9°F0.5°C 84% 4.6 mph S7.4 kmh S 5.8 mph9.3 kmh 29.51 in999.3 mb - 0.00 in0.0 mm 0.54 in13.7 mm
11:40 PM 37.4°F3.0°C 33.0°F0.6°C 84% 3.5 mph SSW5.6 kmh SSW 4.6 mph7.4 kmh 29.51 in999.3 mb - 0.00 in0.0 mm 0.54 in13.7 mm
11:50 PM 37.5°F3.1°C 33.1°F0.6°C 84% 2.3 mph SW3.7 kmh SW 3.5 mph5.6 kmh 29.52 in999.7 mb - 0.00 in0.0 mm 0.54 in13.7 mm